sensor_id;sensor_type;location;lat;lon;timestamp;P1;durP1;ratioP1;P2;durP2;ratioP2
15142;SDS011;7672;50.834;6.286;2023-04-24T00:01:00;3.33;;;1.67;;
15142;SDS011;7672;50.834;6.286;2023-04-24T00:03:43;1.70;;;1.50;;
15142;SDS011;7672;50.834;6.286;2023-04-24T00:06:59;2.33;;;1.67;;
15142;SDS011;7672;50.834;6.286;2023-04-24T00:10:39;2.93;;;1.70;;
15142;SDS011;7672;50.834;6.286;2023-04-24T00:13:32;1.70;;;1.50;;
15142;SDS011;7672;50.834;6.286;2023-04-24T00:16:22;2.03;;;1.73;;
15142;SDS011;7672;50.834;6.286;2023-04-24T00:19:47;2.40;;;1.70;;
15142;SDS011;7672;50.834;6.286;2023-04-24T00:23:20;1.90;;;1.70;;
15142;SDS011;7672;50.834;6.286;2023-04-24T00:26:41;2.23;;;2.00;;
15142;SDS011;7672;50.834;6.286;2023-04-24T00:30:14;2.77;;;2.07;;
15142;SDS011;7672;50.834;6.286;2023-04-24T00:33:12;2.40;;;1.93;;
15142;SDS011;7672;50.834;6.286;2023-04-24T00:35:39;2.07;;;1.87;;
15142;SDS011;7672;50.834;6.286;2023-04-24T00:38:09;5.73;;;2.63;;
15142;SDS011;7672;50.834;6.286;2023-04-24T00:40:36;4.63;;;3.33;;
15142;SDS011;7672;50.834;6.286;2023-04-24T00:43:03;3.23;;;2.80;;
15142;SDS011;7672;50.834;6.286;2023-04-24T00:45:30;3.90;;;3.20;;
15142;SDS011;7672;50.834;6.286;2023-04-24T00:47:57;4.67;;;4.23;;
15142;SDS011;7672;50.834;6.286;2023-04-24T00:50:25;4.73;;;4.17;;
15142;SDS011;7672;50.834;6.286;2023-04-24T00:52:53;6.20;;;4.07;;
15142;SDS011;7672;50.834;6.286;2023-04-24T00:55:20;5.03;;;3.77;;
15142;SDS011;7672;50.834;6.286;2023-04-24T00:57:47;5.27;;;4.33;;
15142;SDS011;7672;50.834;6.286;2023-04-24T01:00:15;6.03;;;4.50;;
15142;SDS011;7672;50.834;6.286;2023-04-24T01:02:43;8.73;;;4.50;;
15142;SDS011;7672;50.834;6.286;2023-04-24T01:05:12;8.30;;;4.87;;
15142;SDS011;7672;50.834;6.286;2023-04-24T01:07:41;7.93;;;5.80;;
15142;SDS011;7672;50.834;6.286;2023-04-24T01:10:12;8.70;;;5.50;;
15142;SDS011;7672;50.834;6.286;2023-04-24T01:12:41;7.30;;;5.97;;
15142;SDS011;7672;50.834;6.286;2023-04-24T01:15:10;7.70;;;5.90;;
15142;SDS011;7672;50.834;6.286;2023-04-24T01:17:37;8.53;;;6.00;;
15142;SDS011;7672;50.834;6.286;2023-04-24T01:20:05;6.50;;;5.57;;
15142;SDS011;7672;50.834;6.286;2023-04-24T01:22:33;6.53;;;5.17;;
15142;SDS011;7672;50.834;6.286;2023-04-24T01:25:01;8.50;;;5.83;;
15142;SDS011;7672;50.834;6.286;2023-04-24T01:27:28;9.07;;;6.23;;
15142;SDS011;7672;50.834;6.286;2023-04-24T01:29:55;6.53;;;5.73;;
15142;SDS011;7672;50.834;6.286;2023-04-24T01:32:23;5.83;;;5.33;;
15142;SDS011;7672;50.834;6.286;2023-04-24T01:34:51;8.10;;;6.23;;
15142;SDS011;7672;50.834;6.286;2023-04-24T01:37:21;8.47;;;6.10;;
15142;SDS011;7672;50.834;6.286;2023-04-24T01:39:48;8.90;;;6.00;;
15142;SDS011;7672;50.834;6.286;2023-04-24T01:42:15;7.30;;;6.33;;
15142;SDS011;7672;50.834;6.286;2023-04-24T01:44:42;7.73;;;6.20;;
15142;SDS011;7672;50.834;6.286;2023-04-24T01:47:10;8.57;;;6.10;;
15142;SDS011;7672;50.834;6.286;2023-04-24T01:49:38;8.17;;;6.30;;
15142;SDS011;7672;50.834;6.286;2023-04-24T01:52:06;8.47;;;6.00;;
15142;SDS011;7672;50.834;6.286;2023-04-24T01:54:32;7.57;;;6.20;;
15142;SDS011;7672;50.834;6.286;2023-04-24T01:56:59;7.50;;;5.13;;
15142;SDS011;7672;50.834;6.286;2023-04-24T01:59:28;10.87;;;6.10;;
15142;SDS011;7672;50.834;6.286;2023-04-24T02:01:59;10.00;;;6.50;;
15142;SDS011;7672;50.834;6.286;2023-04-24T02:04:26;6.90;;;6.20;;
15142;SDS011;7672;50.834;6.286;2023-04-24T02:06:53;9.17;;;6.93;;
15142;SDS011;7672;50.834;6.286;2023-04-24T02:09:20;9.37;;;6.43;;
15142;SDS011;7672;50.834;6.286;2023-04-24T02:11:47;7.87;;;5.97;;
15142;SDS011;7672;50.834;6.286;2023-04-24T02:14:14;8.27;;;6.63;;
15142;SDS011;7672;50.834;6.286;2023-04-24T02:16:41;7.50;;;6.70;;
15142;SDS011;7672;50.834;6.286;2023-04-24T02:19:08;9.27;;;6.50;;
15142;SDS011;7672;50.834;6.286;2023-04-24T02:21:35;10.40;;;6.73;;
15142;SDS011;7672;50.834;6.286;2023-04-24T02:24:02;7.70;;;6.87;;
15142;SDS011;7672;50.834;6.286;2023-04-24T02:26:29;7.30;;;6.53;;
15142;SDS011;7672;50.834;6.286;2023-04-24T02:28:57;10.00;;;6.93;;
15142;SDS011;7672;50.834;6.286;2023-04-24T02:31:24;8.93;;;6.23;;
15142;SDS011;7672;50.834;6.286;2023-04-24T02:33:51;9.80;;;6.63;;
15142;SDS011;7672;50.834;6.286;2023-04-24T02:36:18;8.53;;;6.93;;
15142;SDS011;7672;50.834;6.286;2023-04-24T02:38:45;9.63;;;6.83;;
15142;SDS011;7672;50.834;6.286;2023-04-24T02:41:12;8.77;;;6.50;;
15142;SDS011;7672;50.834;6.286;2023-04-24T02:43:39;11.27;;;6.93;;
15142;SDS011;7672;50.834;6.286;2023-04-24T02:46:06;8.33;;;7.20;;
15142;SDS011;7672;50.834;6.286;2023-04-24T02:48:33;11.40;;;7.10;;
15142;SDS011;7672;50.834;6.286;2023-04-24T02:50:59;9.73;;;7.80;;
15142;SDS011;7672;50.834;6.286;2023-04-24T02:53:26;7.93;;;7.13;;
15142;SDS011;7672;50.834;6.286;2023-04-24T02:55:53;8.83;;;7.60;;
15142;SDS011;7672;50.834;6.286;2023-04-24T02:58:20;7.60;;;6.90;;
15142;SDS011;7672;50.834;6.286;2023-04-24T03:00:53;9.10;;;7.30;;
15142;SDS011;7672;50.834;6.286;2023-04-24T03:03:21;9.10;;;7.07;;
15142;SDS011;7672;50.834;6.286;2023-04-24T03:05:50;10.90;;;7.33;;
15142;SDS011;7672;50.834;6.286;2023-04-24T03:08:17;7.90;;;6.87;;
15142;SDS011;7672;50.834;6.286;2023-04-24T03:10:44;9.53;;;7.20;;
15142;SDS011;7672;50.834;6.286;2023-04-24T03:13:13;10.57;;;7.70;;
15142;SDS011;7672;50.834;6.286;2023-04-24T03:15:41;11.30;;;7.30;;
15142;SDS011;7672;50.834;6.286;2023-04-24T03:18:08;9.90;;;6.80;;
15142;SDS011;7672;50.834;6.286;2023-04-24T03:20:38;9.57;;;6.13;;
15142;SDS011;7672;50.834;6.286;2023-04-24T03:23:05;8.90;;;7.33;;
15142;SDS011;7672;50.834;6.286;2023-04-24T03:25:31;10.27;;;7.13;;
15142;SDS011;7672;50.834;6.286;2023-04-24T03:27:58;8.20;;;7.43;;
15142;SDS011;7672;50.834;6.286;2023-04-24T03:30:25;7.70;;;6.83;;
15142;SDS011;7672;50.834;6.286;2023-04-24T03:32:52;9.30;;;6.93;;
15142;SDS011;7672;50.834;6.286;2023-04-24T03:35:19;8.90;;;7.10;;
15142;SDS011;7672;50.834;6.286;2023-04-24T03:37:48;8.83;;;6.90;;
15142;SDS011;7672;50.834;6.286;2023-04-24T03:40:15;10.17;;;6.97;;
15142;SDS011;7672;50.834;6.286;2023-04-24T03:42:42;8.20;;;6.33;;
15142;SDS011;7672;50.834;6.286;2023-04-24T03:45:09;7.87;;;6.40;;
15142;SDS011;7672;50.834;6.286;2023-04-24T03:47:36;8.53;;;7.20;;
15142;SDS011;7672;50.834;6.286;2023-04-24T03:50:03;9.10;;;6.57;;
15142;SDS011;7672;50.834;6.286;2023-04-24T03:52:30;7.07;;;6.37;;
15142;SDS011;7672;50.834;6.286;2023-04-24T03:54:58;9.27;;;6.00;;
15142;SDS011;7672;50.834;6.286;2023-04-24T03:57:25;9.33;;;6.13;;
15142;SDS011;7672;50.834;6.286;2023-04-24T03:59:51;7.60;;;5.77;;
15142;SDS011;7672;50.834;6.286;2023-04-24T04:02:19;10.17;;;7.00;;
15142;SDS011;7672;50.834;6.286;2023-04-24T04:04:46;8.67;;;6.03;;
15142;SDS011;7672;50.834;6.286;2023-04-24T04:07:13;8.10;;;6.57;;
15142;SDS011;7672;50.834;6.286;2023-04-24T04:09:40;8.80;;;6.10;;
15142;SDS011;7672;50.834;6.286;2023-04-24T04:12:10;6.80;;;6.10;;
15142;SDS011;7672;50.834;6.286;2023-04-24T04:14:38;8.37;;;6.20;;
15142;SDS011;7672;50.834;6.286;2023-04-24T04:17:05;7.83;;;6.50;;
15142;SDS011;7672;50.834;6.286;2023-04-24T04:19:32;8.73;;;6.37;;
15142;SDS011;7672;50.834;6.286;2023-04-24T04:21:59;8.10;;;6.77;;
15142;SDS011;7672;50.834;6.286;2023-04-24T04:24:26;8.10;;;7.07;;
15142;SDS011;7672;50.834;6.286;2023-04-24T04:26:52;8.53;;;6.43;;
15142;SDS011;7672;50.834;6.286;2023-04-24T04:29:24;8.70;;;6.33;;
15142;SDS011;7672;50.834;6.286;2023-04-24T04:31:52;8.23;;;7.07;;
15142;SDS011;7672;50.834;6.286;2023-04-24T04:34:19;9.57;;;7.30;;
15142;SDS011;7672;50.834;6.286;2023-04-24T04:36:45;8.90;;;7.20;;
15142;SDS011;7672;50.834;6.286;2023-04-24T04:39:12;8.07;;;7.13;;
15142;SDS011;7672;50.834;6.286;2023-04-24T04:41:43;10.60;;;7.97;;
15142;SDS011;7672;50.834;6.286;2023-04-24T04:44:12;9.77;;;8.07;;
15142;SDS011;7672;50.834;6.286;2023-04-24T04:46:40;9.27;;;7.63;;
15142;SDS011;7672;50.834;6.286;2023-04-24T04:49:07;11.30;;;8.03;;
15142;SDS011;7672;50.834;6.286;2023-04-24T04:51:34;7.93;;;7.10;;
15142;SDS011;7672;50.834;6.286;2023-04-24T04:54:05;7.83;;;7.03;;
15142;SDS011;7672;50.834;6.286;2023-04-24T04:56:33;11.27;;;7.40;;
15142;SDS011;7672;50.834;6.286;2023-04-24T04:59:00;10.90;;;7.17;;
15142;SDS011;7672;50.834;6.286;2023-04-24T05:01:32;7.73;;;7.03;;
15142;SDS011;7672;50.834;6.286;2023-04-24T05:03:59;10.80;;;7.40;;
15142;SDS011;7672;50.834;6.286;2023-04-24T05:06:30;8.30;;;7.50;;
15142;SDS011;7672;50.834;6.286;2023-04-24T05:08:59;8.13;;;7.33;;
15142;SDS011;7672;50.834;6.286;2023-04-24T05:11:26;8.97;;;7.40;;
15142;SDS011;7672;50.834;6.286;2023-04-24T05:13:53;9.17;;;7.00;;
15142;SDS011;7672;50.834;6.286;2023-04-24T05:16:21;8.53;;;6.17;;
15142;SDS011;7672;50.834;6.286;2023-04-24T05:18:55;7.77;;;6.17;;
15142;SDS011;7672;50.834;6.286;2023-04-24T05:21:22;5.73;;;5.13;;
15142;SDS011;7672;50.834;6.286;2023-04-24T05:23:51;5.80;;;5.17;;
15142;SDS011;7672;50.834;6.286;2023-04-24T05:26:21;6.57;;;5.67;;
15142;SDS011;7672;50.834;6.286;2023-04-24T05:28:48;6.67;;;4.93;;
15142;SDS011;7672;50.834;6.286;2023-04-24T05:31:17;5.10;;;4.50;;
15142;SDS011;7672;50.834;6.286;2023-04-24T05:33:47;5.77;;;4.50;;
15142;SDS011;7672;50.834;6.286;2023-04-24T05:36:24;5.03;;;4.53;;
15142;SDS011;7672;50.834;6.286;2023-04-24T05:39:08;4.60;;;4.20;;
15142;SDS011;7672;50.834;6.286;2023-04-24T05:42:02;5.13;;;3.83;;
15142;SDS011;7672;50.834;6.286;2023-04-24T05:44:30;7.77;;;4.47;;
15142;SDS011;7672;50.834;6.286;2023-04-24T05:46:58;5.10;;;4.03;;
15142;SDS011;7672;50.834;6.286;2023-04-24T05:49:25;5.50;;;4.70;;
15142;SDS011;7672;50.834;6.286;2023-04-24T05:51:52;9.00;;;4.83;;
15142;SDS011;7672;50.834;6.286;2023-04-24T05:54:19;7.50;;;4.53;;
15142;SDS011;7672;50.834;6.286;2023-04-24T05:56:47;6.10;;;4.70;;
15142;SDS011;7672;50.834;6.286;2023-04-24T05:59:15;6.30;;;4.33;;
15142;SDS011;7672;50.834;6.286;2023-04-24T06:01:42;7.00;;;3.93;;
15142;SDS011;7672;50.834;6.286;2023-04-24T06:04:09;5.50;;;3.90;;
15142;SDS011;7672;50.834;6.286;2023-04-24T06:06:37;4.13;;;3.13;;
15142;SDS011;7672;50.834;6.286;2023-04-24T06:09:04;3.10;;;2.77;;
15142;SDS011;7672;50.834;6.286;2023-04-24T06:11:31;3.47;;;3.17;;
15142;SDS011;7672;50.834;6.286;2023-04-24T06:13:59;7.33;;;3.47;;
15142;SDS011;7672;50.834;6.286;2023-04-24T06:16:26;3.10;;;2.80;;
15142;SDS011;7672;50.834;6.286;2023-04-24T06:18:53;4.63;;;3.10;;
15142;SDS011;7672;50.834;6.286;2023-04-24T06:21:21;4.07;;;3.67;;
15142;SDS011;7672;50.834;6.286;2023-04-24T06:23:48;6.27;;;4.30;;
15142;SDS011;7672;50.834;6.286;2023-04-24T06:26:15;4.00;;;3.43;;
15142;SDS011;7672;50.834;6.286;2023-04-24T06:28:43;5.03;;;3.50;;
15142;SDS011;7672;50.834;6.286;2023-04-24T06:31:10;4.63;;;3.80;;
15142;SDS011;7672;50.834;6.286;2023-04-24T06:33:37;4.10;;;3.70;;
15142;SDS011;7672;50.834;6.286;2023-04-24T06:36:04;4.50;;;3.43;;
15142;SDS011;7672;50.834;6.286;2023-04-24T06:38:32;4.60;;;4.20;;
15142;SDS011;7672;50.834;6.286;2023-04-24T06:41:00;3.33;;;3.03;;
15142;SDS011;7672;50.834;6.286;2023-04-24T06:43:27;3.50;;;3.20;;
15142;SDS011;7672;50.834;6.286;2023-04-24T06:45:54;4.10;;;3.27;;
15142;SDS011;7672;50.834;6.286;2023-04-24T06:48:20;3.70;;;3.40;;
15142;SDS011;7672;50.834;6.286;2023-04-24T06:50:51;4.50;;;3.50;;
15142;SDS011;7672;50.834;6.286;2023-04-24T06:53:18;4.07;;;3.77;;
15142;SDS011;7672;50.834;6.286;2023-04-24T06:55:45;5.17;;;4.20;;
15142;SDS011;7672;50.834;6.286;2023-04-24T06:58:13;4.03;;;3.20;;
15142;SDS011;7672;50.834;6.286;2023-04-24T07:00:41;4.10;;;2.90;;
15142;SDS011;7672;50.834;6.286;2023-04-24T07:03:07;4.13;;;2.30;;
15142;SDS011;7672;50.834;6.286;2023-04-24T07:05:35;2.13;;;1.93;;
15142;SDS011;7672;50.834;6.286;2023-04-24T07:08:03;2.23;;;2.03;;
15142;SDS011;7672;50.834;6.286;2023-04-24T07:10:30;1.83;;;1.73;;
15142;SDS011;7672;50.834;6.286;2023-04-24T07:12:56;3.50;;;2.10;;
15142;SDS011;7672;50.834;6.286;2023-04-24T07:15:23;2.30;;;2.10;;
15142;SDS011;7672;50.834;6.286;2023-04-24T07:17:50;3.53;;;2.47;;
15142;SDS011;7672;50.834;6.286;2023-04-24T07:20:17;6.10;;;2.10;;
15142;SDS011;7672;50.834;6.286;2023-04-24T07:22:45;4.53;;;2.20;;
15142;SDS011;7672;50.834;6.286;2023-04-24T07:25:12;2.87;;;2.57;;
15142;SDS011;7672;50.834;6.286;2023-04-24T07:27:39;2.83;;;2.53;;
15142;SDS011;7672;50.834;6.286;2023-04-24T07:30:06;4.70;;;3.17;;
15142;SDS011;7672;50.834;6.286;2023-04-24T07:32:33;3.77;;;2.60;;
15142;SDS011;7672;50.834;6.286;2023-04-24T07:35:01;3.23;;;2.80;;
15142;SDS011;7672;50.834;6.286;2023-04-24T07:37:30;4.43;;;3.13;;
15142;SDS011;7672;50.834;6.286;2023-04-24T07:39:57;3.97;;;2.70;;
15142;SDS011;7672;50.834;6.286;2023-04-24T07:42:23;2.73;;;2.37;;
15142;SDS011;7672;50.834;6.286;2023-04-24T07:44:50;2.40;;;2.00;;
15142;SDS011;7672;50.834;6.286;2023-04-24T07:47:17;3.10;;;2.30;;
15142;SDS011;7672;50.834;6.286;2023-04-24T07:49:44;2.43;;;2.20;;
15142;SDS011;7672;50.834;6.286;2023-04-24T07:52:11;3.53;;;2.60;;
15142;SDS011;7672;50.834;6.286;2023-04-24T07:54:40;2.57;;;2.37;;
15142;SDS011;7672;50.834;6.286;2023-04-24T07:57:09;3.60;;;3.17;;
15142;SDS011;7672;50.834;6.286;2023-04-24T07:59:36;4.83;;;3.60;;
15142;SDS011;7672;50.834;6.286;2023-04-24T08:02:02;3.10;;;2.83;;
15142;SDS011;7672;50.834;6.286;2023-04-24T08:04:29;4.97;;;3.30;;
15142;SDS011;7672;50.834;6.286;2023-04-24T08:06:56;4.20;;;3.37;;
15142;SDS011;7672;50.834;6.286;2023-04-24T08:09:23;5.30;;;3.40;;
15142;SDS011;7672;50.834;6.286;2023-04-24T08:11:52;5.23;;;3.60;;
15142;SDS011;7672;50.834;6.286;2023-04-24T08:14:22;5.03;;;4.10;;
15142;SDS011;7672;50.834;6.286;2023-04-24T08:16:49;4.93;;;3.97;;
15142;SDS011;7672;50.834;6.286;2023-04-24T08:19:16;6.33;;;3.87;;
15142;SDS011;7672;50.834;6.286;2023-04-24T08:21:43;4.83;;;4.33;;
15142;SDS011;7672;50.834;6.286;2023-04-24T08:24:09;5.50;;;4.20;;
15142;SDS011;7672;50.834;6.286;2023-04-24T08:26:36;4.77;;;3.80;;
15142;SDS011;7672;50.834;6.286;2023-04-24T08:29:04;6.77;;;3.97;;
15142;SDS011;7672;50.834;6.286;2023-04-24T08:31:32;7.87;;;3.90;;
15142;SDS011;7672;50.834;6.286;2023-04-24T08:33:59;7.17;;;4.40;;
15142;SDS011;7672;50.834;6.286;2023-04-24T08:36:26;5.33;;;4.00;;
15142;SDS011;7672;50.834;6.286;2023-04-24T08:39:12;4.27;;;3.67;;
15142;SDS011;7672;50.834;6.286;2023-04-24T08:41:43;4.47;;;3.57;;
15142;SDS011;7672;50.834;6.286;2023-04-24T08:44:11;4.07;;;3.67;;
15142;SDS011;7672;50.834;6.286;2023-04-24T08:46:44;6.07;;;3.97;;
15142;SDS011;7672;50.834;6.286;2023-04-24T08:49:15;4.77;;;3.50;;
15142;SDS011;7672;50.834;6.286;2023-04-24T08:51:44;4.70;;;3.73;;
15142;SDS011;7672;50.834;6.286;2023-04-24T08:54:13;4.60;;;3.93;;
15142;SDS011;7672;50.834;6.286;2023-04-24T08:56:40;7.73;;;4.30;;
15142;SDS011;7672;50.834;6.286;2023-04-24T08:59:11;4.17;;;3.33;;
15142;SDS011;7672;50.834;6.286;2023-04-24T09:01:39;4.13;;;3.23;;
15142;SDS011;7672;50.834;6.286;2023-04-24T09:04:07;7.83;;;3.80;;
15142;SDS011;7672;50.834;6.286;2023-04-24T09:06:40;7.50;;;3.80;;
15142;SDS011;7672;50.834;6.286;2023-04-24T09:09:08;4.97;;;3.87;;
15142;SDS011;7672;50.834;6.286;2023-04-24T09:11:37;6.57;;;4.43;;
15142;SDS011;7672;50.834;6.286;2023-04-24T09:14:04;4.07;;;3.67;;
15142;SDS011;7672;50.834;6.286;2023-04-24T09:16:32;7.07;;;3.97;;
15142;SDS011;7672;50.834;6.286;2023-04-24T09:19:02;4.83;;;4.07;;
15142;SDS011;7672;50.834;6.286;2023-04-24T09:21:33;5.53;;;3.80;;
15142;SDS011;7672;50.834;6.286;2023-04-24T09:24:05;5.07;;;3.67;;
15142;SDS011;7672;50.834;6.286;2023-04-24T09:26:40;4.17;;;3.77;;
15142;SDS011;7672;50.834;6.286;2023-04-24T09:29:07;4.93;;;4.00;;
15142;SDS011;7672;50.834;6.286;2023-04-24T09:31:33;5.20;;;4.13;;
15142;SDS011;7672;50.834;6.286;2023-04-24T09:34:02;4.20;;;3.33;;
15142;SDS011;7672;50.834;6.286;2023-04-24T09:36:37;4.73;;;3.43;;
15142;SDS011;7672;50.834;6.286;2023-04-24T09:39:11;3.70;;;2.90;;
15142;SDS011;7672;50.834;6.286;2023-04-24T09:44:18;4.90;;;3.07;;
15142;SDS011;7672;50.834;6.286;2023-04-24T09:46:51;3.87;;;3.27;;
15142;SDS011;7672;50.834;6.286;2023-04-24T09:49:25;4.60;;;3.33;;
15142;SDS011;7672;50.834;6.286;2023-04-24T09:52:04;4.23;;;3.10;;
15142;SDS011;7672;50.834;6.286;2023-04-24T09:54:37;5.20;;;3.50;;
15142;SDS011;7672;50.834;6.286;2023-04-24T09:57:07;8.03;;;4.00;;
15142;SDS011;7672;50.834;6.286;2023-04-24T09:59:35;5.13;;;4.00;;
15142;SDS011;7672;50.834;6.286;2023-04-24T10:02:17;8.97;;;4.67;;
15142;SDS011;7672;50.834;6.286;2023-04-24T10:04:54;12.90;;;5.90;;
15142;SDS011;7672;50.834;6.286;2023-04-24T10:07:25;9.47;;;6.47;;
15142;SDS011;7672;50.834;6.286;2023-04-24T10:09:52;12.37;;;7.30;;
15142;SDS011;7672;50.834;6.286;2023-04-24T10:12:20;9.37;;;6.87;;
15142;SDS011;7672;50.834;6.286;2023-04-24T10:14:55;12.47;;;7.60;;
15142;SDS011;7672;50.834;6.286;2023-04-24T10:17:36;9.90;;;6.20;;
15142;SDS011;7672;50.834;6.286;2023-04-24T10:20:06;12.53;;;6.20;;
15142;SDS011;7672;50.834;6.286;2023-04-24T10:22:39;8.97;;;5.23;;
15142;SDS011;7672;50.834;6.286;2023-04-24T10:25:06;9.10;;;5.67;;
15142;SDS011;7672;50.834;6.286;2023-04-24T10:27:35;10.23;;;4.90;;
15142;SDS011;7672;50.834;6.286;2023-04-24T10:30:04;7.90;;;3.80;;
15142;SDS011;7672;50.834;6.286;2023-04-24T10:32:33;7.47;;;3.83;;
15142;SDS011;7672;50.834;6.286;2023-04-24T10:35:00;6.53;;;3.93;;
15142;SDS011;7672;50.834;6.286;2023-04-24T10:37:26;5.23;;;3.53;;
15142;SDS011;7672;50.834;6.286;2023-04-24T10:39:55;7.10;;;3.80;;
15142;SDS011;7672;50.834;6.286;2023-04-24T10:42:22;7.43;;;4.57;;
15142;SDS011;7672;50.834;6.286;2023-04-24T10:44:49;6.77;;;4.57;;
15142;SDS011;7672;50.834;6.286;2023-04-24T10:47:18;10.80;;;5.47;;
15142;SDS011;7672;50.834;6.286;2023-04-24T10:49:54;9.67;;;5.10;;
15142;SDS011;7672;50.834;6.286;2023-04-24T10:52:43;9.30;;;6.10;;
15142;SDS011;7672;50.834;6.286;2023-04-24T10:55:18;11.57;;;6.00;;
15142;SDS011;7672;50.834;6.286;2023-04-24T10:58:41;8.80;;;5.60;;
15142;SDS011;7672;50.834;6.286;2023-04-24T11:01:27;12.13;;;4.87;;
15142;SDS011;7672;50.834;6.286;2023-04-24T11:03:57;7.70;;;4.67;;
15142;SDS011;7672;50.834;6.286;2023-04-24T11:06:35;9.27;;;5.10;;
15142;SDS011;7672;50.834;6.286;2023-04-24T11:09:04;12.03;;;5.67;;
15142;SDS011;7672;50.834;6.286;2023-04-24T11:11:33;12.33;;;6.47;;
15142;SDS011;7672;50.834;6.286;2023-04-24T11:14:04;11.47;;;5.70;;
15142;SDS011;7672;50.834;6.286;2023-04-24T11:16:41;10.40;;;6.10;;
15142;SDS011;7672;50.834;6.286;2023-04-24T11:19:25;9.57;;;6.17;;
15142;SDS011;7672;50.834;6.286;2023-04-24T11:21:59;8.07;;;5.83;;
15142;SDS011;7672;50.834;6.286;2023-04-24T11:24:38;10.17;;;6.20;;
15142;SDS011;7672;50.834;6.286;2023-04-24T11:27:15;9.47;;;5.67;;
15142;SDS011;7672;50.834;6.286;2023-04-24T11:29:47;9.00;;;5.43;;
15142;SDS011;7672;50.834;6.286;2023-04-24T11:32:26;9.40;;;5.40;;
15142;SDS011;7672;50.834;6.286;2023-04-24T11:34:59;8.53;;;5.27;;
15142;SDS011;7672;50.834;6.286;2023-04-24T11:37:46;10.03;;;5.60;;
15142;SDS011;7672;50.834;6.286;2023-04-24T11:40:19;9.73;;;5.17;;
15142;SDS011;7672;50.834;6.286;2023-04-24T11:42:49;9.17;;;5.37;;
15142;SDS011;7672;50.834;6.286;2023-04-24T11:45:21;9.93;;;5.23;;
15142;SDS011;7672;50.834;6.286;2023-04-24T11:47:57;9.33;;;5.13;;
15142;SDS011;7672;50.834;6.286;2023-04-24T11:50:25;8.07;;;4.90;;
15142;SDS011;7672;50.834;6.286;2023-04-24T11:52:54;7.37;;;4.93;;
15142;SDS011;7672;50.834;6.286;2023-04-24T11:57:57;8.63;;;5.27;;
15142;SDS011;7672;50.834;6.286;2023-04-24T12:00:29;11.63;;;5.20;;
15142;SDS011;7672;50.834;6.286;2023-04-24T12:03:07;8.27;;;5.30;;
15142;SDS011;7672;50.834;6.286;2023-04-24T12:05:36;8.83;;;4.63;;
15142;SDS011;7672;50.834;6.286;2023-04-24T12:08:06;7.97;;;5.07;;
15142;SDS011;7672;50.834;6.286;2023-04-24T12:10:34;9.00;;;5.33;;
15142;SDS011;7672;50.834;6.286;2023-04-24T12:13:01;10.03;;;5.23;;
15142;SDS011;7672;50.834;6.286;2023-04-24T12:15:31;10.50;;;4.70;;
15142;SDS011;7672;50.834;6.286;2023-04-24T12:17:58;9.33;;;4.87;;
15142;SDS011;7672;50.834;6.286;2023-04-24T12:20:32;8.20;;;4.40;;
15142;SDS011;7672;50.834;6.286;2023-04-24T12:23:01;8.37;;;5.00;;
15142;SDS011;7672;50.834;6.286;2023-04-24T12:25:31;9.57;;;5.30;;
15142;SDS011;7672;50.834;6.286;2023-04-24T12:30:46;8.80;;;5.03;;
15142;SDS011;7672;50.834;6.286;2023-04-24T12:33:21;7.37;;;4.60;;
15142;SDS011;7672;50.834;6.286;2023-04-24T12:35:48;8.30;;;4.90;;
15142;SDS011;7672;50.834;6.286;2023-04-24T12:38:22;9.30;;;5.27;;
15142;SDS011;7672;50.834;6.286;2023-04-24T12:41:01;9.30;;;5.70;;
15142;SDS011;7672;50.834;6.286;2023-04-24T12:43:31;8.77;;;5.10;;
15142;SDS011;7672;50.834;6.286;2023-04-24T12:45:58;7.90;;;5.50;;
15142;SDS011;7672;50.834;6.286;2023-04-24T12:48:28;8.03;;;5.47;;
15142;SDS011;7672;50.834;6.286;2023-04-24T12:50:58;7.03;;;5.50;;
15142;SDS011;7672;50.834;6.286;2023-04-24T12:53:28;11.03;;;5.60;;
15142;SDS011;7672;50.834;6.286;2023-04-24T12:55:58;9.57;;;5.37;;
15142;SDS011;7672;50.834;6.286;2023-04-24T12:58:25;13.90;;;6.40;;
15142;SDS011;7672;50.834;6.286;2023-04-24T13:00:52;9.30;;;5.10;;
15142;SDS011;7672;50.834;6.286;2023-04-24T13:03:19;9.67;;;5.87;;
15142;SDS011;7672;50.834;6.286;2023-04-24T13:05:46;11.93;;;7.10;;
15142;SDS011;7672;50.834;6.286;2023-04-24T13:08:13;6.93;;;5.17;;
15142;SDS011;7672;50.834;6.286;2023-04-24T13:10:40;9.87;;;5.37;;
15142;SDS011;7672;50.834;6.286;2023-04-24T13:13:07;6.83;;;4.53;;
15142;SDS011;7672;50.834;6.286;2023-04-24T13:15:35;7.13;;;4.47;;
15142;SDS011;7672;50.834;6.286;2023-04-24T13:18:05;9.67;;;4.70;;
15142;SDS011;7672;50.834;6.286;2023-04-24T13:20:38;8.00;;;5.03;;
15142;SDS011;7672;50.834;6.286;2023-04-24T13:23:07;8.43;;;4.53;;
15142;SDS011;7672;50.834;6.286;2023-04-24T13:25:35;7.73;;;4.40;;
15142;SDS011;7672;50.834;6.286;2023-04-24T13:28:07;8.23;;;5.00;;
15142;SDS011;7672;50.834;6.286;2023-04-24T13:30:34;10.67;;;4.73;;
15142;SDS011;7672;50.834;6.286;2023-04-24T13:33:01;7.97;;;5.47;;
15142;SDS011;7672;50.834;6.286;2023-04-24T13:35:29;7.43;;;4.90;;
15142;SDS011;7672;50.834;6.286;2023-04-24T13:37:57;7.40;;;4.73;;
15142;SDS011;7672;50.834;6.286;2023-04-24T13:40:26;7.37;;;5.27;;
15142;SDS011;7672;50.834;6.286;2023-04-24T13:42:54;5.70;;;4.50;;
15142;SDS011;7672;50.834;6.286;2023-04-24T13:45:20;5.97;;;4.37;;
15142;SDS011;7672;50.834;6.286;2023-04-24T13:47:50;7.03;;;4.40;;
15142;SDS011;7672;50.834;6.286;2023-04-24T13:50:18;7.03;;;3.93;;
15142;SDS011;7672;50.834;6.286;2023-04-24T13:52:46;7.07;;;4.20;;
15142;SDS011;7672;50.834;6.286;2023-04-24T13:55:13;10.83;;;4.57;;
15142;SDS011;7672;50.834;6.286;2023-04-24T13:57:40;9.53;;;4.80;;
15142;SDS011;7672;50.834;6.286;2023-04-24T14:00:10;10.43;;;5.00;;
15142;SDS011;7672;50.834;6.286;2023-04-24T14:02:37;7.63;;;4.47;;
15142;SDS011;7672;50.834;6.286;2023-04-24T14:05:06;8.90;;;5.20;;
15142;SDS011;7672;50.834;6.286;2023-04-24T14:07:33;6.50;;;5.30;;
15142;SDS011;7672;50.834;6.286;2023-04-24T14:10:02;7.10;;;4.60;;
15142;SDS011;7672;50.834;6.286;2023-04-24T14:12:30;8.43;;;5.33;;
15142;SDS011;7672;50.834;6.286;2023-04-24T14:14:57;6.87;;;4.57;;
15142;SDS011;7672;50.834;6.286;2023-04-24T14:17:27;7.03;;;4.30;;
15142;SDS011;7672;50.834;6.286;2023-04-24T14:19:54;8.30;;;4.70;;
15142;SDS011;7672;50.834;6.286;2023-04-24T14:22:25;7.47;;;4.67;;
15142;SDS011;7672;50.834;6.286;2023-04-24T14:24:52;8.40;;;4.30;;
15142;SDS011;7672;50.834;6.286;2023-04-24T14:27:20;7.37;;;4.13;;
15142;SDS011;7672;50.834;6.286;2023-04-24T14:29:47;6.57;;;4.20;;
15142;SDS011;7672;50.834;6.286;2023-04-24T14:32:14;5.57;;;4.20;;
15142;SDS011;7672;50.834;6.286;2023-04-24T14:34:41;5.70;;;4.10;;
15142;SDS011;7672;50.834;6.286;2023-04-24T14:37:09;9.47;;;4.63;;
15142;SDS011;7672;50.834;6.286;2023-04-24T14:39:41;6.30;;;4.30;;
15142;SDS011;7672;50.834;6.286;2023-04-24T14:42:15;5.10;;;4.47;;
15142;SDS011;7672;50.834;6.286;2023-04-24T14:44:43;6.03;;;4.40;;
15142;SDS011;7672;50.834;6.286;2023-04-24T14:47:12;4.87;;;3.87;;
15142;SDS011;7672;50.834;6.286;2023-04-24T14:49:39;7.43;;;4.20;;
15142;SDS011;7672;50.834;6.286;2023-04-24T14:52:06;5.70;;;4.03;;
15142;SDS011;7672;50.834;6.286;2023-04-24T14:54:36;3.90;;;3.40;;
15142;SDS011;7672;50.834;6.286;2023-04-24T14:57:05;6.27;;;4.30;;
15142;SDS011;7672;50.834;6.286;2023-04-24T14:59:32;5.03;;;3.80;;
15142;SDS011;7672;50.834;6.286;2023-04-24T15:01:59;4.87;;;3.70;;
15142;SDS011;7672;50.834;6.286;2023-04-24T15:04:41;5.23;;;4.10;;
15142;SDS011;7672;50.834;6.286;2023-04-24T15:07:08;6.80;;;4.43;;
15142;SDS011;7672;50.834;6.286;2023-04-24T15:09:44;5.60;;;3.90;;
15142;SDS011;7672;50.834;6.286;2023-04-24T15:12:13;5.83;;;3.93;;
15142;SDS011;7672;50.834;6.286;2023-04-24T15:14:40;6.07;;;4.27;;
15142;SDS011;7672;50.834;6.286;2023-04-24T15:17:07;5.83;;;3.63;;
15142;SDS011;7672;50.834;6.286;2023-04-24T15:19:34;6.53;;;4.07;;
15142;SDS011;7672;50.834;6.286;2023-04-24T15:22:01;9.33;;;4.53;;
15142;SDS011;7672;50.834;6.286;2023-04-24T15:24:28;8.47;;;5.00;;
15142;SDS011;7672;50.834;6.286;2023-04-24T15:26:54;6.40;;;3.80;;